sensor_id;sensor_type;location;lat;lon;timestamp;P1;durP1;ratioP1;P2;durP2;ratioP2
37529;SDS011;23374;52.758;6.872;2022-08-21T00:01:39;3.70;;;2.47;;
37529;SDS011;23374;52.758;6.872;2022-08-21T00:04:04;4.90;;;2.50;;
37529;SDS011;23374;52.758;6.872;2022-08-21T00:06:25;6.47;;;2.23;;
37529;SDS011;23374;52.758;6.872;2022-08-21T00:08:46;2.93;;;2.10;;
37529;SDS011;23374;52.758;6.872;2022-08-21T00:11:07;6.63;;;2.30;;
37529;SDS011;23374;52.758;6.872;2022-08-21T00:13:28;7.60;;;2.37;;
37529;SDS011;23374;52.758;6.872;2022-08-21T00:15:48;4.87;;;2.47;;
37529;SDS011;23374;52.758;6.872;2022-08-21T00:18:09;7.50;;;2.80;;
37529;SDS011;23374;52.758;6.872;2022-08-21T00:20:31;5.47;;;2.30;;
37529;SDS011;23374;52.758;6.872;2022-08-21T00:22:53;11.83;;;2.40;;
37529;SDS011;23374;52.758;6.872;2022-08-21T00:25:14;3.03;;;2.00;;
37529;SDS011;23374;52.758;6.872;2022-08-21T00:27:35;3.93;;;2.53;;
37529;SDS011;23374;52.758;6.872;2022-08-21T00:29:56;4.87;;;2.60;;
37529;SDS011;23374;52.758;6.872;2022-08-21T00:32:23;7.40;;;2.47;;
37529;SDS011;23374;52.758;6.872;2022-08-21T00:34:45;3.63;;;2.40;;
37529;SDS011;23374;52.758;6.872;2022-08-21T00:37:06;4.87;;;2.77;;
37529;SDS011;23374;52.758;6.872;2022-08-21T00:39:27;4.40;;;2.47;;
37529;SDS011;23374;52.758;6.872;2022-08-21T00:41:47;7.70;;;2.87;;
37529;SDS011;23374;52.758;6.872;2022-08-21T00:44:10;5.90;;;2.50;;
37529;SDS011;23374;52.758;6.872;2022-08-21T00:46:32;3.60;;;2.40;;
37529;SDS011;23374;52.758;6.872;2022-08-21T00:48:52;4.37;;;2.27;;
37529;SDS011;23374;52.758;6.872;2022-08-21T00:51:19;3.30;;;2.43;;
37529;SDS011;23374;52.758;6.872;2022-08-21T00:54:43;5.87;;;2.77;;
37529;SDS011;23374;52.758;6.872;2022-08-21T00:57:08;7.20;;;2.77;;
37529;SDS011;23374;52.758;6.872;2022-08-21T00:59:37;6.90;;;2.40;;
37529;SDS011;23374;52.758;6.872;2022-08-21T01:01:59;6.03;;;2.30;;
37529;SDS011;23374;52.758;6.872;2022-08-21T01:04:20;4.50;;;2.77;;
37529;SDS011;23374;52.758;6.872;2022-08-21T01:06:42;6.50;;;2.70;;
37529;SDS011;23374;52.758;6.872;2022-08-21T01:09:03;7.50;;;2.80;;
37529;SDS011;23374;52.758;6.872;2022-08-21T01:11:24;5.20;;;2.80;;
37529;SDS011;23374;52.758;6.872;2022-08-21T01:13:45;4.70;;;2.67;;
37529;SDS011;23374;52.758;6.872;2022-08-21T01:16:09;4.50;;;2.83;;
37529;SDS011;23374;52.758;6.872;2022-08-21T01:18:29;4.00;;;2.67;;
37529;SDS011;23374;52.758;6.872;2022-08-21T01:21:12;6.37;;;2.90;;
37529;SDS011;23374;52.758;6.872;2022-08-21T01:23:36;5.10;;;3.00;;
37529;SDS011;23374;52.758;6.872;2022-08-21T01:25:58;6.93;;;2.60;;
37529;SDS011;23374;52.758;6.872;2022-08-21T01:28:19;8.70;;;3.17;;
37529;SDS011;23374;52.758;6.872;2022-08-21T01:30:42;4.33;;;3.20;;
37529;SDS011;23374;52.758;6.872;2022-08-21T01:33:03;10.10;;;3.30;;
37529;SDS011;23374;52.758;6.872;2022-08-21T01:35:24;5.70;;;3.53;;
37529;SDS011;23374;52.758;6.872;2022-08-21T01:37:45;6.80;;;3.17;;
37529;SDS011;23374;52.758;6.872;2022-08-21T01:40:07;5.17;;;3.00;;
37529;SDS011;23374;52.758;6.872;2022-08-21T01:42:28;5.80;;;2.87;;
37529;SDS011;23374;52.758;6.872;2022-08-21T01:44:48;5.77;;;3.20;;
37529;SDS011;23374;52.758;6.872;2022-08-21T01:47:10;6.57;;;3.40;;
37529;SDS011;23374;52.758;6.872;2022-08-21T01:49:34;5.10;;;2.90;;
37529;SDS011;23374;52.758;6.872;2022-08-21T01:51:56;5.30;;;2.60;;
37529;SDS011;23374;52.758;6.872;2022-08-21T01:54:48;4.87;;;2.80;;
37529;SDS011;23374;52.758;6.872;2022-08-21T01:57:08;5.37;;;3.03;;
37529;SDS011;23374;52.758;6.872;2022-08-21T01:59:30;5.97;;;3.57;;
37529;SDS011;23374;52.758;6.872;2022-08-21T02:01:51;5.30;;;3.23;;
37529;SDS011;23374;52.758;6.872;2022-08-21T02:04:13;6.50;;;2.93;;
37529;SDS011;23374;52.758;6.872;2022-08-21T02:06:34;3.60;;;2.80;;
37529;SDS011;23374;52.758;6.872;2022-08-21T02:08:55;6.67;;;2.73;;
37529;SDS011;23374;52.758;6.872;2022-08-21T02:11:16;5.67;;;3.00;;
37529;SDS011;23374;52.758;6.872;2022-08-21T02:13:37;5.23;;;3.40;;
37529;SDS011;23374;52.758;6.872;2022-08-21T02:15:57;6.57;;;3.17;;
37529;SDS011;23374;52.758;6.872;2022-08-21T02:18:18;4.83;;;3.20;;
37529;SDS011;23374;52.758;6.872;2022-08-21T02:20:41;6.00;;;3.30;;
37529;SDS011;23374;52.758;6.872;2022-08-21T02:23:05;5.30;;;3.20;;
37529;SDS011;23374;52.758;6.872;2022-08-21T02:25:27;6.23;;;3.50;;
37529;SDS011;23374;52.758;6.872;2022-08-21T02:27:48;7.73;;;3.80;;
37529;SDS011;23374;52.758;6.872;2022-08-21T02:30:11;6.10;;;3.50;;
37529;SDS011;23374;52.758;6.872;2022-08-21T02:32:34;6.43;;;3.70;;
37529;SDS011;23374;52.758;6.872;2022-08-21T02:34:55;5.97;;;3.77;;
37529;SDS011;23374;52.758;6.872;2022-08-21T02:37:16;4.93;;;3.97;;
37529;SDS011;23374;52.758;6.872;2022-08-21T02:39:36;5.40;;;3.93;;
37529;SDS011;23374;52.758;6.872;2022-08-21T02:41:56;6.93;;;4.43;;
37529;SDS011;23374;52.758;6.872;2022-08-21T02:44:16;12.50;;;4.80;;
37529;SDS011;23374;52.758;6.872;2022-08-21T02:46:36;7.13;;;4.47;;
37529;SDS011;23374;52.758;6.872;2022-08-21T02:48:57;11.40;;;4.20;;
37529;SDS011;23374;52.758;6.872;2022-08-21T02:51:18;6.23;;;4.10;;
37529;SDS011;23374;52.758;6.872;2022-08-21T02:54:53;6.27;;;3.43;;
37529;SDS011;23374;52.758;6.872;2022-08-21T02:57:13;4.63;;;3.60;;
37529;SDS011;23374;52.758;6.872;2022-08-21T02:59:33;5.57;;;3.63;;
37529;SDS011;23374;52.758;6.872;2022-08-21T03:01:54;4.87;;;3.50;;
37529;SDS011;23374;52.758;6.872;2022-08-21T03:04:16;6.67;;;3.47;;
37529;SDS011;23374;52.758;6.872;2022-08-21T03:06:36;5.83;;;3.30;;
37529;SDS011;23374;52.758;6.872;2022-08-21T03:08:57;5.27;;;3.70;;
37529;SDS011;23374;52.758;6.872;2022-08-21T03:11:17;5.20;;;3.97;;
37529;SDS011;23374;52.758;6.872;2022-08-21T03:13:40;6.60;;;4.10;;
37529;SDS011;23374;52.758;6.872;2022-08-21T03:16:00;5.30;;;3.70;;
37529;SDS011;23374;52.758;6.872;2022-08-21T03:18:20;7.27;;;3.80;;
37529;SDS011;23374;52.758;6.872;2022-08-21T03:20:41;6.97;;;3.87;;
37529;SDS011;23374;52.758;6.872;2022-08-21T03:23:05;4.73;;;3.23;;
37529;SDS011;23374;52.758;6.872;2022-08-21T03:25:27;5.17;;;3.57;;
37529;SDS011;23374;52.758;6.872;2022-08-21T03:27:48;4.43;;;3.73;;
37529;SDS011;23374;52.758;6.872;2022-08-21T03:30:09;5.57;;;3.93;;
37529;SDS011;23374;52.758;6.872;2022-08-21T03:32:31;5.03;;;3.90;;
37529;SDS011;23374;52.758;6.872;2022-08-21T03:34:51;7.23;;;4.00;;
37529;SDS011;23374;52.758;6.872;2022-08-21T03:37:11;7.47;;;4.10;;
37529;SDS011;23374;52.758;6.872;2022-08-21T03:39:33;5.00;;;3.63;;
37529;SDS011;23374;52.758;6.872;2022-08-21T03:41:54;5.93;;;4.00;;
37529;SDS011;23374;52.758;6.872;2022-08-21T03:44:14;7.00;;;3.87;;
37529;SDS011;23374;52.758;6.872;2022-08-21T03:46:34;7.17;;;4.37;;
37529;SDS011;23374;52.758;6.872;2022-08-21T03:48:55;7.97;;;4.47;;
37529;SDS011;23374;52.758;6.872;2022-08-21T03:51:15;8.17;;;4.13;;
37529;SDS011;23374;52.758;6.872;2022-08-21T03:53:35;5.23;;;4.33;;
37529;SDS011;23374;52.758;6.872;2022-08-21T03:55:56;8.77;;;4.70;;
37529;SDS011;23374;52.758;6.872;2022-08-21T03:58:19;7.27;;;4.90;;
37529;SDS011;23374;52.758;6.872;2022-08-21T04:00:44;8.47;;;5.33;;
37529;SDS011;23374;52.758;6.872;2022-08-21T04:03:06;8.73;;;5.27;;
37529;SDS011;23374;52.758;6.872;2022-08-21T04:05:27;10.77;;;5.87;;
37529;SDS011;23374;52.758;6.872;2022-08-21T04:07:47;9.17;;;5.53;;
37529;SDS011;23374;52.758;6.872;2022-08-21T04:10:08;10.33;;;6.37;;
37529;SDS011;23374;52.758;6.872;2022-08-21T04:12:29;9.13;;;6.20;;
37529;SDS011;23374;52.758;6.872;2022-08-21T04:14:49;13.13;;;5.87;;
37529;SDS011;23374;52.758;6.872;2022-08-21T04:17:13;11.50;;;6.30;;
37529;SDS011;23374;52.758;6.872;2022-08-21T04:19:33;10.80;;;6.43;;
37529;SDS011;23374;52.758;6.872;2022-08-21T04:21:53;9.70;;;6.10;;
37529;SDS011;23374;52.758;6.872;2022-08-21T04:24:13;9.53;;;6.33;;
37529;SDS011;23374;52.758;6.872;2022-08-21T04:26:34;11.27;;;6.17;;
37529;SDS011;23374;52.758;6.872;2022-08-21T04:28:55;10.07;;;6.10;;
37529;SDS011;23374;52.758;6.872;2022-08-21T04:31:17;10.80;;;6.57;;
37529;SDS011;23374;52.758;6.872;2022-08-21T04:33:37;7.07;;;5.57;;
37529;SDS011;23374;52.758;6.872;2022-08-21T04:35:58;10.50;;;6.07;;
37529;SDS011;23374;52.758;6.872;2022-08-21T04:38:18;10.93;;;6.00;;
37529;SDS011;23374;52.758;6.872;2022-08-21T04:40:40;12.70;;;6.33;;
37529;SDS011;23374;52.758;6.872;2022-08-21T04:43:04;9.57;;;6.13;;
37529;SDS011;23374;52.758;6.872;2022-08-21T04:45:30;11.43;;;7.00;;
37529;SDS011;23374;52.758;6.872;2022-08-21T04:47:55;11.73;;;6.20;;
37529;SDS011;23374;52.758;6.872;2022-08-21T04:50:17;9.87;;;6.30;;
37529;SDS011;23374;52.758;6.872;2022-08-21T04:52:38;8.63;;;6.43;;
37529;SDS011;23374;52.758;6.872;2022-08-21T04:54:59;12.07;;;6.30;;
37529;SDS011;23374;52.758;6.872;2022-08-21T04:57:21;11.57;;;6.50;;
37529;SDS011;23374;52.758;6.872;2022-08-21T04:59:48;10.93;;;6.20;;
37529;SDS011;23374;52.758;6.872;2022-08-21T05:02:10;10.80;;;6.77;;
37529;SDS011;23374;52.758;6.872;2022-08-21T05:04:33;10.30;;;6.07;;
37529;SDS011;23374;52.758;6.872;2022-08-21T05:06:58;9.00;;;6.07;;
37529;SDS011;23374;52.758;6.872;2022-08-21T05:09:21;10.97;;;6.23;;
37529;SDS011;23374;52.758;6.872;2022-08-21T05:11:43;11.00;;;5.87;;
37529;SDS011;23374;52.758;6.872;2022-08-21T05:14:04;10.33;;;5.67;;
37529;SDS011;23374;52.758;6.872;2022-08-21T05:16:24;11.43;;;6.10;;
37529;SDS011;23374;52.758;6.872;2022-08-21T05:18:44;9.57;;;5.87;;
37529;SDS011;23374;52.758;6.872;2022-08-21T05:21:04;11.03;;;5.70;;
37529;SDS011;23374;52.758;6.872;2022-08-21T05:23:25;9.70;;;5.53;;
37529;SDS011;23374;52.758;6.872;2022-08-21T05:25:45;7.73;;;5.60;;
37529;SDS011;23374;52.758;6.872;2022-08-21T05:28:06;7.47;;;5.00;;
37529;SDS011;23374;52.758;6.872;2022-08-21T05:30:26;7.50;;;5.30;;
37529;SDS011;23374;52.758;6.872;2022-08-21T05:32:47;12.83;;;5.57;;
37529;SDS011;23374;52.758;6.872;2022-08-21T05:35:07;9.53;;;5.47;;
37529;SDS011;23374;52.758;6.872;2022-08-21T05:37:28;8.00;;;4.80;;
37529;SDS011;23374;52.758;6.872;2022-08-21T05:39:48;7.90;;;4.80;;
37529;SDS011;23374;52.758;6.872;2022-08-21T05:42:09;7.87;;;4.83;;
37529;SDS011;23374;52.758;6.872;2022-08-21T05:44:29;9.00;;;4.87;;
37529;SDS011;23374;52.758;6.872;2022-08-21T05:46:50;10.53;;;4.97;;
37529;SDS011;23374;52.758;6.872;2022-08-21T05:49:11;6.43;;;4.80;;
37529;SDS011;23374;52.758;6.872;2022-08-21T05:51:32;9.67;;;4.33;;
37529;SDS011;23374;52.758;6.872;2022-08-21T05:53:52;5.40;;;4.23;;
37529;SDS011;23374;52.758;6.872;2022-08-21T05:56:12;9.03;;;5.33;;
37529;SDS011;23374;52.758;6.872;2022-08-21T05:58:33;8.57;;;4.60;;
37529;SDS011;23374;52.758;6.872;2022-08-21T06:00:54;8.03;;;4.80;;
37529;SDS011;23374;52.758;6.872;2022-08-21T06:03:23;7.53;;;4.73;;
37529;SDS011;23374;52.758;6.872;2022-08-21T06:05:47;7.40;;;4.60;;
37529;SDS011;23374;52.758;6.872;2022-08-21T06:08:07;7.20;;;4.87;;
37529;SDS011;23374;52.758;6.872;2022-08-21T06:10:28;10.23;;;5.13;;
37529;SDS011;23374;52.758;6.872;2022-08-21T06:12:52;7.73;;;4.83;;
37529;SDS011;23374;52.758;6.872;2022-08-21T06:15:14;9.00;;;5.03;;
37529;SDS011;23374;52.758;6.872;2022-08-21T06:17:34;8.80;;;4.77;;
37529;SDS011;23374;52.758;6.872;2022-08-21T06:19:54;10.03;;;5.43;;
37529;SDS011;23374;52.758;6.872;2022-08-21T06:22:15;7.33;;;4.73;;
37529;SDS011;23374;52.758;6.872;2022-08-21T06:24:35;7.97;;;4.83;;
37529;SDS011;23374;52.758;6.872;2022-08-21T06:26:56;8.17;;;4.70;;
37529;SDS011;23374;52.758;6.872;2022-08-21T06:29:17;7.87;;;4.80;;
37529;SDS011;23374;52.758;6.872;2022-08-21T06:31:39;8.17;;;4.30;;
37529;SDS011;23374;52.758;6.872;2022-08-21T06:34:00;9.23;;;4.30;;
37529;SDS011;23374;52.758;6.872;2022-08-21T06:36:20;7.97;;;4.67;;
37529;SDS011;23374;52.758;6.872;2022-08-21T06:38:41;6.87;;;4.73;;
37529;SDS011;23374;52.758;6.872;2022-08-21T06:41:02;11.10;;;4.80;;
37529;SDS011;23374;52.758;6.872;2022-08-21T06:43:23;16.20;;;5.30;;
37529;SDS011;23374;52.758;6.872;2022-08-21T06:45:43;8.30;;;4.67;;
37529;SDS011;23374;52.758;6.872;2022-08-21T06:48:04;7.20;;;4.43;;
37529;SDS011;23374;52.758;6.872;2022-08-21T06:50:26;6.93;;;4.70;;
37529;SDS011;23374;52.758;6.872;2022-08-21T06:52:46;8.60;;;4.93;;
37529;SDS011;23374;52.758;6.872;2022-08-21T06:55:08;9.97;;;4.43;;
37529;SDS011;23374;52.758;6.872;2022-08-21T06:57:29;7.80;;;4.70;;
37529;SDS011;23374;52.758;6.872;2022-08-21T06:59:50;8.80;;;4.40;;
37529;SDS011;23374;52.758;6.872;2022-08-21T07:02:10;8.50;;;4.30;;
37529;SDS011;23374;52.758;6.872;2022-08-21T07:04:30;7.90;;;4.60;;
37529;SDS011;23374;52.758;6.872;2022-08-21T07:06:51;8.47;;;4.30;;
37529;SDS011;23374;52.758;6.872;2022-08-21T07:09:11;9.83;;;4.20;;
37529;SDS011;23374;52.758;6.872;2022-08-21T07:11:32;9.03;;;4.40;;
37529;SDS011;23374;52.758;6.872;2022-08-21T07:13:55;10.10;;;4.27;;
37529;SDS011;23374;52.758;6.872;2022-08-21T07:16:16;8.63;;;4.20;;
37529;SDS011;23374;52.758;6.872;2022-08-21T07:18:36;9.07;;;3.77;;
37529;SDS011;23374;52.758;6.872;2022-08-21T07:20:56;9.07;;;3.70;;
37529;SDS011;23374;52.758;6.872;2022-08-21T07:23:22;4.83;;;3.40;;
37529;SDS011;23374;52.758;6.872;2022-08-21T07:25:46;14.43;;;4.37;;
37529;SDS011;23374;52.758;6.872;2022-08-21T07:28:06;5.70;;;3.33;;
37529;SDS011;23374;52.758;6.872;2022-08-21T07:30:26;8.83;;;3.00;;
37529;SDS011;23374;52.758;6.872;2022-08-21T07:32:47;9.73;;;3.47;;
37529;SDS011;23374;52.758;6.872;2022-08-21T07:35:09;8.40;;;3.60;;
37529;SDS011;23374;52.758;6.872;2022-08-21T07:37:29;3.57;;;2.83;;
37529;SDS011;23374;52.758;6.872;2022-08-21T07:39:50;8.27;;;3.00;;
37529;SDS011;23374;52.758;6.872;2022-08-21T07:42:11;6.03;;;2.77;;
37529;SDS011;23374;52.758;6.872;2022-08-21T07:44:31;6.27;;;2.67;;
37529;SDS011;23374;52.758;6.872;2022-08-21T07:46:53;7.87;;;2.67;;
37529;SDS011;23374;52.758;6.872;2022-08-21T07:49:13;4.93;;;2.30;;
37529;SDS011;23374;52.758;6.872;2022-08-21T07:51:33;6.33;;;2.67;;
37529;SDS011;23374;52.758;6.872;2022-08-21T07:53:55;4.40;;;2.37;;
37529;SDS011;23374;52.758;6.872;2022-08-21T07:56:18;6.13;;;2.57;;
37529;SDS011;23374;52.758;6.872;2022-08-21T07:58:39;8.60;;;2.37;;
37529;SDS011;23374;52.758;6.872;2022-08-21T08:00:59;4.13;;;1.73;;
37529;SDS011;23374;52.758;6.872;2022-08-21T08:03:20;4.50;;;1.97;;
37529;SDS011;23374;52.758;6.872;2022-08-21T08:05:40;6.30;;;2.10;;
37529;SDS011;23374;52.758;6.872;2022-08-21T08:08:01;7.53;;;2.60;;
37529;SDS011;23374;52.758;6.872;2022-08-21T08:10:22;8.33;;;2.13;;
37529;SDS011;23374;52.758;6.872;2022-08-21T08:12:43;5.40;;;2.20;;
37529;SDS011;23374;52.758;6.872;2022-08-21T08:15:06;5.40;;;2.13;;
37529;SDS011;23374;52.758;6.872;2022-08-21T08:17:29;6.00;;;2.17;;
37529;SDS011;23374;52.758;6.872;2022-08-21T08:19:51;4.43;;;2.00;;
37529;SDS011;23374;52.758;6.872;2022-08-21T08:22:16;4.53;;;2.10;;
37529;SDS011;23374;52.758;6.872;2022-08-21T08:24:42;7.43;;;2.30;;
37529;SDS011;23374;52.758;6.872;2022-08-21T08:27:03;7.97;;;2.30;;
37529;SDS011;23374;52.758;6.872;2022-08-21T08:29:23;4.87;;;2.27;;
37529;SDS011;23374;52.758;6.872;2022-08-21T08:31:44;8.60;;;2.33;;
37529;SDS011;23374;52.758;6.872;2022-08-21T08:34:04;6.57;;;2.00;;
37529;SDS011;23374;52.758;6.872;2022-08-21T08:36:32;8.20;;;2.00;;
37529;SDS011;23374;52.758;6.872;2022-08-21T08:38:54;4.20;;;1.77;;
37529;SDS011;23374;52.758;6.872;2022-08-21T08:41:17;7.90;;;2.30;;
37529;SDS011;23374;52.758;6.872;2022-08-21T08:43:50;7.90;;;2.20;;
37529;SDS011;23374;52.758;6.872;2022-08-21T08:46:14;7.97;;;2.57;;
37529;SDS011;23374;52.758;6.872;2022-08-21T08:48:55;4.83;;;2.30;;
37529;SDS011;23374;52.758;6.872;2022-08-21T08:51:25;7.97;;;2.80;;
37529;SDS011;23374;52.758;6.872;2022-08-21T08:53:59;4.50;;;2.73;;
37529;SDS011;23374;52.758;6.872;2022-08-21T08:56:27;7.90;;;2.40;;
37529;SDS011;23374;52.758;6.872;2022-08-21T08:58:50;4.27;;;2.20;;
37529;SDS011;23374;52.758;6.872;2022-08-21T09:01:18;7.63;;;2.60;;
37529;SDS011;23374;52.758;6.872;2022-08-21T09:03:39;4.20;;;2.00;;
37529;SDS011;23374;52.758;6.872;2022-08-21T09:09:14;8.37;;;2.70;;
37529;SDS011;23374;52.758;6.872;2022-08-21T09:13:49;7.57;;;2.23;;
37529;SDS011;23374;52.758;6.872;2022-08-21T09:19:56;9.10;;;2.23;;
37529;SDS011;23374;52.758;6.872;2022-08-21T09:26:14;4.20;;;2.20;;
37529;SDS011;23374;52.758;6.872;2022-08-21T09:28:38;7.13;;;2.03;;
37529;SDS011;23374;52.758;6.872;2022-08-21T09:31:04;6.93;;;1.90;;
37529;SDS011;23374;52.758;6.872;2022-08-21T09:33:26;4.13;;;1.87;;
37529;SDS011;23374;52.758;6.872;2022-08-21T09:35:51;5.23;;;2.00;;
37529;SDS011;23374;52.758;6.872;2022-08-21T09:38:24;6.53;;;1.93;;
37529;SDS011;23374;52.758;6.872;2022-08-21T09:40:56;4.73;;;1.73;;
37529;SDS011;23374;52.758;6.872;2022-08-21T09:43:22;3.80;;;1.80;;
37529;SDS011;23374;52.758;6.872;2022-08-21T09:45:48;6.80;;;1.80;;
37529;SDS011;23374;52.758;6.872;2022-08-21T09:48:22;4.33;;;1.63;;
37529;SDS011;23374;52.758;6.872;2022-08-21T09:50:44;2.00;;;1.43;;
37529;SDS011;23374;52.758;6.872;2022-08-21T09:53:16;5.10;;;2.07;;
37529;SDS011;23374;52.758;6.872;2022-08-21T09:55:59;5.77;;;1.90;;
37529;SDS011;23374;52.758;6.872;2022-08-21T09:58:42;4.63;;;1.80;;
37529;SDS011;23374;52.758;6.872;2022-08-21T10:01:05;7.93;;;1.80;;
37529;SDS011;23374;52.758;6.872;2022-08-21T10:03:26;5.30;;;1.77;;
37529;SDS011;23374;52.758;6.872;2022-08-21T10:06:02;5.17;;;2.33;;
37529;SDS011;23374;52.758;6.872;2022-08-21T10:08:28;6.03;;;2.00;;
37529;SDS011;23374;52.758;6.872;2022-08-21T10:10:55;5.27;;;2.20;;
37529;SDS011;23374;52.758;6.872;2022-08-21T10:13:36;9.07;;;2.00;;
37529;SDS011;23374;52.758;6.872;2022-08-21T10:17:44;5.07;;;1.93;;
37529;SDS011;23374;52.758;6.872;2022-08-21T10:20:23;3.30;;;1.80;;
37529;SDS011;23374;52.758;6.872;2022-08-21T10:23:39;10.57;;;2.20;;
37529;SDS011;23374;52.758;6.872;2022-08-21T10:35:30;3.60;;;1.50;;
37529;SDS011;23374;52.758;6.872;2022-08-21T10:38:27;5.87;;;1.70;;
37529;SDS011;23374;52.758;6.872;2022-08-21T10:47:57;7.07;;;1.70;;
37529;SDS011;23374;52.758;6.872;2022-08-21T10:50:39;4.57;;;1.60;;
37529;SDS011;23374;52.758;6.872;2022-08-21T10:55:51;3.17;;;1.30;;
37529;SDS011;23374;52.758;6.872;2022-08-21T10:58:33;4.80;;;1.50;;
37529;SDS011;23374;52.758;6.872;2022-08-21T11:01:07;7.63;;;1.57;;
37529;SDS011;23374;52.758;6.872;2022-08-21T11:03:44;10.13;;;1.60;;
37529;SDS011;23374;52.758;6.872;2022-08-21T11:06:12;7.70;;;1.93;;
37529;SDS011;23374;52.758;6.872;2022-08-21T11:08:40;3.57;;;1.70;;
37529;SDS011;23374;52.758;6.872;2022-08-21T11:11:15;7.13;;;1.80;;
37529;SDS011;23374;52.758;6.872;2022-08-21T11:14:00;6.97;;;1.27;;
37529;SDS011;23374;52.758;6.872;2022-08-21T11:16:40;4.93;;;1.70;;
37529;SDS011;23374;52.758;6.872;2022-08-21T11:19:24;6.27;;;1.80;;
37529;SDS011;23374;52.758;6.872;2022-08-21T11:22:21;4.77;;;1.30;;
37529;SDS011;23374;52.758;6.872;2022-08-21T11:25:26;3.33;;;1.60;;
37529;SDS011;23374;52.758;6.872;2022-08-21T11:28:02;7.10;;;1.43;;
37529;SDS011;23374;52.758;6.872;2022-08-21T11:45:54;4.27;;;1.40;;
37529;SDS011;23374;52.758;6.872;2022-08-21T11:52:53;3.27;;;1.20;;
37529;SDS011;23374;52.758;6.872;2022-08-21T11:55:34;4.53;;;1.43;;
37529;SDS011;23374;52.758;6.872;2022-08-21T11:59:06;8.73;;;1.83;;
37529;SDS011;23374;52.758;6.872;2022-08-21T12:01:34;3.53;;;1.27;;
37529;SDS011;23374;52.758;6.872;2022-08-21T12:04:04;5.43;;;1.37;;
37529;SDS011;23374;52.758;6.872;2022-08-21T12:06:37;4.63;;;1.40;;
37529;SDS011;23374;52.758;6.872;2022-08-21T12:09:26;7.70;;;1.53;;
37529;SDS011;23374;52.758;6.872;2022-08-21T12:12:04;5.43;;;1.50;;
37529;SDS011;23374;52.758;6.872;2022-08-21T12:14:51;7.63;;;2.80;;
37529;SDS011;23374;52.758;6.872;2022-08-21T12:17:35;3.10;;;1.80;;
37529;SDS011;23374;52.758;6.872;2022-08-21T12:20:00;4.37;;;1.60;;
37529;SDS011;23374;52.758;6.872;2022-08-21T12:22:39;4.53;;;1.37;;
37529;SDS011;23374;52.758;6.872;2022-08-21T12:25:10;3.33;;;1.40;;
37529;SDS011;23374;52.758;6.872;2022-08-21T12:27:49;4.63;;;1.40;;
37529;SDS011;23374;52.758;6.872;2022-08-21T12:30:37;5.33;;;1.40;;
37529;SDS011;23374;52.758;6.872;2022-08-21T12:33:02;3.53;;;1.30;;
37529;SDS011;23374;52.758;6.872;2022-08-21T12:35:26;3.57;;;1.43;;
37529;SDS011;23374;52.758;6.872;2022-08-21T12:38:32;2.83;;;1.30;;
37529;SDS011;23374;52.758;6.872;2022-08-21T12:42:01;4.63;;;1.50;;
37529;SDS011;23374;52.758;6.872;2022-08-21T12:44:48;3.03;;;1.30;;
37529;SDS011;23374;52.758;6.872;2022-08-21T12:47:33;4.60;;;1.33;;
37529;SDS011;23374;52.758;6.872;2022-08-21T12:50:11;2.70;;;1.40;;
37529;SDS011;23374;52.758;6.872;2022-08-21T12:52:44;3.60;;;1.60;;
37529;SDS011;23374;52.758;6.872;2022-08-21T12:55:32;9.53;;;1.43;;
37529;SDS011;23374;52.758;6.872;2022-08-21T12:57:53;6.17;;;1.70;;
37529;SDS011;23374;52.758;6.872;2022-08-21T13:00:20;2.37;;;1.40;;
37529;SDS011;23374;52.758;6.872;2022-08-21T13:02:45;3.17;;;1.13;;
37529;SDS011;23374;52.758;6.872;2022-08-21T13:05:11;4.60;;;1.23;;
37529;SDS011;23374;52.758;6.872;2022-08-21T13:07:34;3.33;;;1.20;;
37529;SDS011;23374;52.758;6.872;2022-08-21T13:10:14;4.53;;;1.23;;
37529;SDS011;23374;52.758;6.872;2022-08-21T13:12:40;3.73;;;1.33;;
37529;SDS011;23374;52.758;6.872;2022-08-21T13:15:04;4.90;;;1.10;;
37529;SDS011;23374;52.758;6.872;2022-08-21T13:17:25;3.53;;;1.27;;
37529;SDS011;23374;52.758;6.872;2022-08-21T13:19:54;5.43;;;1.40;;
37529;SDS011;23374;52.758;6.872;2022-08-21T13:22:20;4.30;;;1.23;;
37529;SDS011;23374;52.758;6.872;2022-08-21T13:24:40;4.03;;;1.40;;
37529;SDS011;23374;52.758;6.872;2022-08-21T13:27:00;4.17;;;1.13;;
37529;SDS011;23374;52.758;6.872;2022-08-21T13:29:28;3.70;;;1.23;;
37529;SDS011;23374;52.758;6.872;2022-08-21T13:31:57;6.23;;;1.77;;
37529;SDS011;23374;52.758;6.872;2022-08-21T13:34:26;5.83;;;1.30;;
37529;SDS011;23374;52.758;6.872;2022-08-21T13:36:56;3.97;;;1.20;;
37529;SDS011;23374;52.758;6.872;2022-08-21T13:39:19;6.50;;;1.53;;
37529;SDS011;23374;52.758;6.872;2022-08-21T13:41:41;6.33;;;1.60;;
37529;SDS011;23374;52.758;6.872;2022-08-21T13:44:13;5.40;;;1.57;;
37529;SDS011;23374;52.758;6.872;2022-08-21T13:46:39;8.90;;;1.93;;
37529;SDS011;23374;52.758;6.872;2022-08-21T13:49:00;6.20;;;1.30;;
37529;SDS011;23374;52.758;6.872;2022-08-21T13:51:22;4.50;;;1.43;;
37529;SDS011;23374;52.758;6.872;2022-08-21T13:53:48;4.47;;;1.60;;
37529;SDS011;23374;52.758;6.872;2022-08-21T13:56:47;3.10;;;1.20;;
37529;SDS011;23374;52.758;6.872;2022-08-21T13:59:08;2.63;;;1.20;;
37529;SDS011;23374;52.758;6.872;2022-08-21T14:01:49;5.33;;;1.47;;
37529;SDS011;23374;52.758;6.872;2022-08-21T14:04:22;4.00;;;1.57;;
37529;SDS011;23374;52.758;6.872;2022-08-21T14:06:51;3.80;;;1.60;;
37529;SDS011;23374;52.758;6.872;2022-08-21T14:09:20;6.03;;;1.80;;
37529;SDS011;23374;52.758;6.872;2022-08-21T14:11:47;4.47;;;1.43;;
37529;SDS011;23374;52.758;6.872;2022-08-21T14:14:28;3.80;;;1.20;;
37529;SDS011;23374;52.758;6.872;2022-08-21T14:17:03;4.87;;;1.17;;
37529;SDS011;23374;52.758;6.872;2022-08-21T14:19:34;7.40;;;2.10;;
37529;SDS011;23374;52.758;6.872;2022-08-21T14:21:57;4.13;;;1.33;;
37529;SDS011;23374;52.758;6.872;2022-08-21T14:24:29;4.37;;;1.67;;
37529;SDS011;23374;52.758;6.872;2022-08-21T14:26:53;5.53;;;1.60;;
37529;SDS011;23374;52.758;6.872;2022-08-21T14:29:24;4.50;;;1.00;;
37529;SDS011;23374;52.758;6.872;2022-08-21T14:31:52;5.53;;;1.60;;
37529;SDS011;23374;52.758;6.872;2022-08-21T14:34:18;2.90;;;1.30;;
37529;SDS011;23374;52.758;6.872;2022-08-21T14:36:39;3.97;;;1.40;;
37529;SDS011;23374;52.758;6.872;2022-08-21T14:38:59;5.10;;;1.50;;
37529;SDS011;23374;52.758;6.872;2022-08-21T14:41:22;4.23;;;1.43;;
37529;SDS011;23374;52.758;6.872;2022-08-21T14:43:47;4.47;;;1.57;;
37529;SDS011;23374;52.758;6.872;2022-08-21T14:46:08;6.03;;;1.87;;
37529;SDS011;23374;52.758;6.872;2022-08-21T14:48:28;2.90;;;1.63;;
37529;SDS011;23374;52.758;6.872;2022-08-21T14:50:49;5.03;;;1.40;;
37529;SDS011;23374;52.758;6.872;2022-08-21T14:53:09;3.67;;;1.40;;
37529;SDS011;23374;52.758;6.872;2022-08-21T14:55:31;4.77;;;1.63;;
37529;SDS011;23374;52.758;6.872;2022-08-21T14:58:24;5.07;;;2.37;;
37529;SDS011;23374;52.758;6.872;2022-08-21T15:00:45;5.17;;;1.90;;
37529;SDS011;23374;52.758;6.872;2022-08-21T15:03:01;8.63;;;1.60;;
37529;SDS011;23374;52.758;6.872;2022-08-21T15:05:22;5.00;;;1.63;;
37529;SDS011;23374;52.758;6.872;2022-08-21T15:07:42;8.50;;;1.70;;
37529;SDS011;23374;52.758;6.872;2022-08-21T15:10:05;7.00;;;1.83;;
37529;SDS011;23374;52.758;6.872;2022-08-21T15:12:26;5.13;;;1.70;;
37529;SDS011;23374;52.758;6.872;2022-08-21T15:14:46;3.00;;;1.60;;
37529;SDS011;23374;52.758;6.872;2022-08-21T15:17:08;4.23;;;1.60;;
37529;SDS011;23374;52.758;6.872;2022-08-21T15:19:30;7.10;;;1.60;;
37529;SDS011;23374;52.758;6.872;2022-08-21T15:21:50;7.40;;;1.90;;
37529;SDS011;23374;52.758;6.872;2022-08-21T15:24:10;5.47;;;1.70;;
37529;SDS011;23374;52.758;6.872;2022-08-21T15:26:30;3.40;;;1.60;;
37529;SDS011;23374;52.758;6.872;2022-08-21T15:28:51;3.33;;;1.70;;
37529;SDS011;23374;52.758;6.872;2022-08-21T15:31:12;5.50;;;1.70;;